createdAt,value
2017-08-27T00:00:44.086Z,21.30
2017-08-27T00:03:11.576Z,21.20
2017-08-27T00:05:39.108Z,21.20
2017-08-27T00:08:06.599Z,21.20
2017-08-27T00:10:34.102Z,21.20
2017-08-27T00:13:01.585Z,21.20
2017-08-27T00:15:29.090Z,21.20
2017-08-27T00:17:57.355Z,21.20
2017-08-27T00:20:24.846Z,21.20
2017-08-27T00:22:52.321Z,21.20
2017-08-27T00:25:19.820Z,21.10
2017-08-27T00:27:47.308Z,21.00
2017-08-27T00:30:14.798Z,20.90
2017-08-27T00:32:42.305Z,20.80
2017-08-27T00:35:09.825Z,20.90
2017-08-27T00:37:38.941Z,21.00
2017-08-27T00:40:06.421Z,20.90
2017-08-27T00:42:33.924Z,20.90
2017-08-27T00:45:01.408Z,20.90
2017-08-27T00:47:28.911Z,20.80
2017-08-27T00:49:56.388Z,20.90
2017-08-27T00:52:23.887Z,20.80
2017-08-27T00:54:51.400Z,20.80
2017-08-27T00:57:18.900Z,20.70
2017-08-27T00:59:47.895Z,20.70
2017-08-27T01:02:15.405Z,20.70
2017-08-27T01:04:42.890Z,20.80
2017-08-27T01:07:10.399Z,20.80
2017-08-27T01:09:38.656Z,20.70
2017-08-27T01:12:06.156Z,20.70
2017-08-27T01:14:33.647Z,20.70
2017-08-27T01:17:01.113Z,20.70
2017-08-27T01:19:28.608Z,20.60
2017-08-27T01:21:56.859Z,20.50
2017-08-27T01:24:24.365Z,20.50
2017-08-27T01:26:51.855Z,20.50
2017-08-27T01:29:19.369Z,20.60
2017-08-27T01:31:46.846Z,20.50
2017-08-27T01:34:14.317Z,20.50
2017-08-27T01:36:41.798Z,20.40
2017-08-27T01:39:09.287Z,20.40
2017-08-27T01:41:37.547Z,20.40
2017-08-27T01:44:05.037Z,20.40
2017-08-27T01:46:32.525Z,20.40
2017-08-27T01:49:00.034Z,20.40
2017-08-27T01:51:28.296Z,20.20
2017-08-27T01:53:55.800Z,20.20
2017-08-27T01:56:23.291Z,20.30
2017-08-27T01:58:50.761Z,20.30
2017-08-27T02:01:18.250Z,20.30
2017-08-27T02:03:46.492Z,20.30
2017-08-27T02:06:13.999Z,20.30
2017-08-27T02:08:41.474Z,20.20
2017-08-27T02:11:08.989Z,20.20
2017-08-27T02:13:36.492Z,20.20
2017-08-27T02:16:03.987Z,20.10
2017-08-27T02:18:31.744Z,20.10
2017-08-27T02:20:59.227Z,20.10
2017-08-27T02:23:26.721Z,20.10
2017-08-27T02:25:54.207Z,20.10
2017-08-27T02:28:22.191Z,20.10
2017-08-27T02:30:49.681Z,20.10
2017-08-27T02:33:17.163Z,20.00
2017-08-27T02:35:44.660Z,20.10
2017-08-27T02:38:12.195Z,20.10
2017-08-27T02:40:39.694Z,20.00
2017-08-27T02:43:07.182Z,20.10
2017-08-27T02:45:34.690Z,20.10
2017-08-27T02:48:02.177Z,20.10
2017-08-27T02:50:29.695Z,20.10
2017-08-27T02:52:57.181Z,20.00
2017-08-27T02:55:24.664Z,19.90
2017-08-27T02:57:52.916Z,19.90
2017-08-27T03:00:20.390Z,19.90
2017-08-27T03:02:47.889Z,19.90
2017-08-27T03:05:15.395Z,20.00
2017-08-27T03:07:42.909Z,19.80
2017-08-27T03:10:10.378Z,19.90
2017-08-27T03:12:37.881Z,19.90
2017-08-27T03:15:06.126Z,19.90
2017-08-27T03:17:33.633Z,19.90
2017-08-27T03:20:01.106Z,19.80
2017-08-27T03:22:28.612Z,19.90
2017-08-27T03:24:56.100Z,19.90
2017-08-27T03:27:23.600Z,19.80
2017-08-27T03:29:51.086Z,19.80
2017-08-27T03:32:18.579Z,19.80
2017-08-27T03:34:46.056Z,19.70
2017-08-27T03:37:13.552Z,19.70
2017-08-27T03:39:41.033Z,19.70
2017-08-27T03:42:09.278Z,19.70
2017-08-27T03:44:36.862Z,19.70
2017-08-27T03:47:04.397Z,19.70
2017-08-27T03:49:31.889Z,19.60
2017-08-27T03:52:00.132Z,19.60
2017-08-27T03:54:27.613Z,19.60
2017-08-27T03:56:55.101Z,19.60
2017-08-27T03:59:22.607Z,19.70
2017-08-27T04:01:50.075Z,19.70
2017-08-27T04:04:17.573Z,19.60
2017-08-27T04:06:45.052Z,19.60
2017-08-27T04:09:12.542Z,19.60
2017-08-27T04:11:40.034Z,19.50
2017-08-27T04:14:08.284Z,19.60
2017-08-27T04:16:35.796Z,19.60
2017-08-27T04:19:03.292Z,19.60
2017-08-27T04:21:30.810Z,19.50
2017-08-27T04:23:58.287Z,19.40
2017-08-27T04:26:25.787Z,19.40
2017-08-27T04:28:53.257Z,19.40
2017-08-27T04:31:20.745Z,19.40
2017-08-27T04:33:48.222Z,19.40
2017-08-27T04:36:15.714Z,19.50
2017-08-27T04:38:43.198Z,19.50
2017-08-27T04:41:10.674Z,19.40
2017-08-27T04:43:38.168Z,19.40
2017-08-27T04:46:05.660Z,19.40
2017-08-27T04:48:33.931Z,19.30
2017-08-27T04:51:01.414Z,19.30
2017-08-27T04:53:28.909Z,19.40
2017-08-27T04:55:56.391Z,19.40
2017-08-27T04:58:23.897Z,19.30
2017-08-27T05:00:51.382Z,19.30
2017-08-27T05:03:18.886Z,19.20
2017-08-27T05:05:47.134Z,19.00
2017-08-27T05:08:14.620Z,19.00
2017-08-27T05:10:42.092Z,19.20
2017-08-27T05:13:09.582Z,19.20
2017-08-27T05:15:37.845Z,19.30
2017-08-27T05:18:05.364Z,19.20
2017-08-27T05:20:32.858Z,19.40
2017-08-27T05:23:00.346Z,19.50
2017-08-27T05:25:27.824Z,19.60
2017-08-27T05:27:55.296Z,19.60
2017-08-27T05:30:23.589Z,19.70
2017-08-27T05:32:51.828Z,19.70
2017-08-27T05:35:19.319Z,19.70
2017-08-27T05:37:47.571Z,19.70
2017-08-27T05:40:21.847Z,19.70
2017-08-27T05:42:49.326Z,19.80
2017-08-27T05:45:17.803Z,19.80
2017-08-27T05:47:46.149Z,19.80
2017-08-27T05:50:13.649Z,19.80
2017-08-27T05:52:41.147Z,19.90
2017-08-27T05:55:09.411Z,20.00
2017-08-27T05:57:37.667Z,20.00
2017-08-27T06:00:05.156Z,19.90
2017-08-27T06:02:32.656Z,20.00
2017-08-27T06:05:00.166Z,20.00
2017-08-27T06:07:27.649Z,20.00
2017-08-27T06:09:55.148Z,20.00
2017-08-27T06:12:22.627Z,20.10
2017-08-27T06:14:50.113Z,20.10
2017-08-27T06:17:17.598Z,20.10
2017-08-27T06:19:45.106Z,20.10
2017-08-27T06:22:12.567Z,20.10
2017-08-27T06:24:40.826Z,20.20
2017-08-27T06:27:08.311Z,20.20
2017-08-27T06:29:35.813Z,20.20
2017-08-27T06:32:03.290Z,20.30
2017-08-27T06:34:30.774Z,20.30
2017-08-27T06:36:59.023Z,20.30
2017-08-27T06:39:26.505Z,20.30
2017-08-27T06:41:54.001Z,20.40
2017-08-27T06:44:21.480Z,20.50
2017-08-27T06:46:49.007Z,20.40
2017-08-27T06:49:16.482Z,20.50
2017-08-27T06:51:43.974Z,20.60
2017-08-27T06:54:12.382Z,20.60
2017-08-27T06:56:39.894Z,20.70
2017-08-27T06:59:07.363Z,20.80
2017-08-27T07:01:34.851Z,20.80
2017-08-27T07:04:03.097Z,20.90
2017-08-27T07:06:30.577Z,20.80
2017-08-27T07:08:58.055Z,20.90
2017-08-27T07:11:25.569Z,21.00
2017-08-27T07:13:53.054Z,21.10
2017-08-27T07:16:21.188Z,21.10
2017-08-27T07:18:48.669Z,21.30
2017-08-27T07:21:16.178Z,21.30
2017-08-27T07:23:43.657Z,21.40
2017-08-27T07:26:11.170Z,21.40
2017-08-27T07:28:38.658Z,21.40
2017-08-27T07:31:06.149Z,21.50
2017-08-27T07:33:33.652Z,21.50
2017-08-27T07:36:01.136Z,21.50
2017-08-27T07:38:30.168Z,21.60
2017-08-27T07:40:57.648Z,21.60
2017-08-27T07:43:25.891Z,21.80
2017-08-27T07:45:53.373Z,21.80
2017-08-27T07:48:20.934Z,21.90
2017-08-27T07:50:48.430Z,22.00
2017-08-27T07:53:15.909Z,21.80
2017-08-27T07:55:43.386Z,21.80
2017-08-27T07:58:10.864Z,21.80
2017-08-27T08:00:39.939Z,21.80
2017-08-27T08:03:07.438Z,21.80
2017-08-27T08:05:34.915Z,21.80
2017-08-27T08:08:02.431Z,21.90
2017-08-27T08:10:29.907Z,22.00
2017-08-27T08:12:58.166Z,22.10
2017-08-27T08:15:25.656Z,22.10
2017-08-27T08:17:53.140Z,22.20
2017-08-27T08:20:20.634Z,22.40
2017-08-27T08:22:48.128Z,22.60
2017-08-27T08:25:15.606Z,22.70
2017-08-27T08:27:43.085Z,22.80
2017-08-27T08:30:10.570Z,22.80
2017-08-27T08:32:38.049Z,22.90
2017-08-27T08:35:06.316Z,22.80
2017-08-27T08:37:33.810Z,22.80
2017-08-27T08:40:01.300Z,22.80
2017-08-27T08:42:28.794Z,22.70
2017-08-27T08:44:57.066Z,22.40
2017-08-27T08:47:25.311Z,22.20
2017-08-27T08:49:52.806Z,22.20
2017-08-27T08:52:21.048Z,22.10
2017-08-27T08:54:48.533Z,22.00
2017-08-27T08:57:16.013Z,22.00
2017-08-27T08:59:43.527Z,21.90
2017-08-27T09:02:11.030Z,21.80
2017-08-27T09:04:38.530Z,21.80
2017-08-27T09:07:06.022Z,21.80
2017-08-27T09:09:34.296Z,21.80
2017-08-27T09:12:01.792Z,21.80
2017-08-27T09:14:29.287Z,21.90
2017-08-27T09:16:56.770Z,22.10
2017-08-27T09:19:24.282Z,22.30
2017-08-27T09:21:51.753Z,22.30
2017-08-27T09:24:19.283Z,22.40
2017-08-27T09:26:46.763Z,22.50
2017-08-27T09:29:14.244Z,22.50
2017-08-27T09:31:41.728Z,22.40
2017-08-27T09:34:09.964Z,22.30
2017-08-27T09:36:37.554Z,22.30
2017-08-27T09:39:11.563Z,22.30
2017-08-27T09:41:39.062Z,22.40
2017-08-27T09:44:06.551Z,22.20
2017-08-27T09:46:34.041Z,22.40
2017-08-27T09:49:07.621Z,22.30
2017-08-27T09:51:35.104Z,22.30
2017-08-27T09:54:03.429Z,22.50
2017-08-27T09:56:32.344Z,22.70
2017-08-27T09:58:59.827Z,22.70
2017-08-27T10:01:28.093Z,22.80
2017-08-27T10:03:55.580Z,22.90
2017-08-27T10:06:23.074Z,23.10
2017-08-27T10:08:50.546Z,23.20
2017-08-27T10:11:18.039Z,23.40
2017-08-27T10:13:46.290Z,23.60
2017-08-27T10:16:13.805Z,23.50
2017-08-27T10:18:41.290Z,23.70
2017-08-27T10:21:08.780Z,23.80
2017-08-27T10:23:36.248Z,23.90
2017-08-27T10:26:03.760Z,24.00
2017-08-27T10:28:31.233Z,24.00
2017-08-27T10:30:58.731Z,23.80
2017-08-27T10:33:26.221Z,23.70
2017-08-27T10:35:53.714Z,24.00
2017-08-27T10:38:21.206Z,24.10
2017-08-27T10:40:48.693Z,24.20
2017-08-27T10:43:16.192Z,24.30
2017-08-27T10:45:43.676Z,24.30
2017-08-27T10:48:11.948Z,24.40
2017-08-27T10:50:39.435Z,24.40
2017-08-27T10:53:06.925Z,24.30
2017-08-27T10:55:34.400Z,24.50
2017-08-27T10:58:01.883Z,24.50
2017-08-27T11:00:29.383Z,24.60
2017-08-27T11:02:56.881Z,24.70
2017-08-27T11:05:24.375Z,24.90
2017-08-27T11:07:51.869Z,24.90
2017-08-27T11:10:19.349Z,24.90
2017-08-27T11:12:46.857Z,24.90
2017-08-27T11:15:14.341Z,24.90
2017-08-27T11:17:41.833Z,25.10
2017-08-27T11:20:09.326Z,25.20
2017-08-27T11:22:36.799Z,25.30
2017-08-27T11:25:04.335Z,25.40
2017-08-27T11:27:31.829Z,25.50
2017-08-27T11:29:59.309Z,25.60
2017-08-27T11:32:26.789Z,25.50
2017-08-27T11:34:54.271Z,25.30
2017-08-27T11:37:21.752Z,25.20
2017-08-27T11:39:49.241Z,25.50
2017-08-27T11:42:16.741Z,25.70
2017-08-27T11:44:44.237Z,25.80
2017-08-27T11:47:11.722Z,25.90
2017-08-27T11:49:39.232Z,25.90
2017-08-27T11:52:06.717Z,26.10
2017-08-27T11:54:34.234Z,26.30
2017-08-27T11:57:01.784Z,26.20
2017-08-27T11:59:29.268Z,26.40
2017-08-27T12:01:56.758Z,26.30
2017-08-27T12:04:24.251Z,26.40
2017-08-27T12:06:52.523Z,26.60
2017-08-27T12:09:20.014Z,26.50
2017-08-27T12:11:47.514Z,26.60
2017-08-27T12:14:14.995Z,26.70
2017-08-27T12:16:43.262Z,26.70
2017-08-27T12:19:11.518Z,26.70
2017-08-27T12:21:39.033Z,26.60
2017-08-27T12:24:06.511Z,26.80
2017-08-27T12:26:34.027Z,26.70
2017-08-27T12:29:02.267Z,26.70
2017-08-27T12:31:29.765Z,26.70
2017-08-27T12:33:57.255Z,26.80
2017-08-27T12:36:24.737Z,26.80
2017-08-27T12:38:52.235Z,26.80
2017-08-27T12:41:19.726Z,26.70
2017-08-27T12:43:47.225Z,26.40
2017-08-27T12:46:14.714Z,26.30
2017-08-27T12:48:42.194Z,26.30
2017-08-27T12:51:09.702Z,26.30
2017-08-27T12:53:37.186Z,26.00
2017-08-27T12:56:04.672Z,26.00
2017-08-27T12:58:32.180Z,26.00
2017-08-27T13:00:59.671Z,26.00
2017-08-27T13:03:27.184Z,26.10
2017-08-27T13:05:54.682Z,26.20
2017-08-27T13:08:22.175Z,26.20
2017-08-27T13:10:49.661Z,26.30
2017-08-27T13:13:17.169Z,26.30
2017-08-27T13:15:44.643Z,26.20
2017-08-27T13:18:12.134Z,26.20
2017-08-27T13:20:39.611Z,26.20
2017-08-27T13:23:07.103Z,26.10
2017-08-27T13:25:34.577Z,26.10
2017-08-27T13:28:02.083Z,26.10
2017-08-27T13:30:29.586Z,26.00
2017-08-27T13:32:57.255Z,26.00
2017-08-27T13:35:24.759Z,26.00
2017-08-27T13:37:52.249Z,26.00
2017-08-27T13:40:19.736Z,26.20
2017-08-27T13:42:47.226Z,26.30
2017-08-27T13:45:14.728Z,26.40
2017-08-27T13:47:42.211Z,26.60
2017-08-27T13:53:02.796Z,26.90
2017-08-27T13:55:30.293Z,26.90
2017-08-27T13:57:57.776Z,26.60
2017-08-27T14:00:25.271Z,26.70
2017-08-27T14:02:52.772Z,26.70
2017-08-27T14:05:20.291Z,26.70
2017-08-27T14:07:47.781Z,26.70
2017-08-27T14:10:15.263Z,26.30
2017-08-27T14:12:42.768Z,26.40
2017-08-27T14:15:10.262Z,26.50
2017-08-27T14:17:38.520Z,26.60
2017-08-27T14:20:06.042Z,26.60
2017-08-27T14:22:34.285Z,26.80
2017-08-27T14:25:01.776Z,26.80
2017-08-27T14:27:29.266Z,26.90
2017-08-27T14:29:56.768Z,26.90
2017-08-27T14:32:24.254Z,26.90
2017-08-27T14:34:51.740Z,27.00
2017-08-27T14:37:19.234Z,27.00
2017-08-27T14:39:46.726Z,27.00
2017-08-27T14:42:14.233Z,26.90
2017-08-27T14:44:41.718Z,26.80
2017-08-27T14:47:09.983Z,26.70
2017-08-27T14:49:37.475Z,26.70
2017-08-27T14:52:04.961Z,26.50
2017-08-27T14:54:32.435Z,26.40
2017-08-27T14:56:59.913Z,26.30
2017-08-27T14:59:27.387Z,26.20
2017-08-27T15:01:55.658Z,25.90
2017-08-27T15:04:23.138Z,25.90
2017-08-27T15:06:50.675Z,25.70
2017-08-27T15:09:18.170Z,25.60
2017-08-27T15:11:45.674Z,25.70
2017-08-27T15:14:13.198Z,25.80
2017-08-27T15:16:40.688Z,25.80
2017-08-27T15:19:08.956Z,26.10
2017-08-27T15:21:36.438Z,26.00
2017-08-27T15:24:03.946Z,26.30
2017-08-27T15:26:31.416Z,26.40
2017-08-27T15:29:05.191Z,26.40
2017-08-27T15:31:32.675Z,26.50
2017-08-27T15:34:00.178Z,26.60
2017-08-27T15:36:27.674Z,26.70
2017-08-27T15:38:55.178Z,26.80
2017-08-27T15:41:22.663Z,26.90
2017-08-27T15:43:50.941Z,27.00
2017-08-27T15:46:19.202Z,27.00
2017-08-27T15:48:46.689Z,27.00
2017-08-27T15:51:14.179Z,26.90
2017-08-27T15:53:41.662Z,26.90
2017-08-27T15:56:09.162Z,26.90
2017-08-27T15:58:36.670Z,26.90
2017-08-27T16:01:04.173Z,26.80
2017-08-27T16:03:31.667Z,26.80
2017-08-27T16:05:59.222Z,26.90
2017-08-27T16:08:47.840Z,26.90
2017-08-27T16:11:16.102Z,26.90
2017-08-27T16:13:44.368Z,26.80
2017-08-27T16:16:12.748Z,26.80
2017-08-27T16:18:40.235Z,26.80
2017-08-27T16:21:07.731Z,26.70
2017-08-27T16:23:35.216Z,26.70
2017-08-27T16:26:02.727Z,26.70
2017-08-27T16:28:30.217Z,26.70
2017-08-27T16:30:57.769Z,26.70
2017-08-27T16:33:25.250Z,26.70
2017-08-27T16:35:52.759Z,26.60
2017-08-27T16:38:20.258Z,26.60
2017-08-27T16:40:47.758Z,26.70
2017-08-27T16:43:15.242Z,26.70
2017-08-27T16:45:42.769Z,26.80
2017-08-27T16:48:10.279Z,27.00
2017-08-27T16:50:37.799Z,27.00
2017-08-27T16:53:05.280Z,27.20
2017-08-27T16:55:32.769Z,27.30
2017-08-27T16:58:00.274Z,27.50
2017-08-27T17:00:27.775Z,27.50
2017-08-27T17:02:55.276Z,27.40
2017-08-27T17:05:23.525Z,27.30
2017-08-27T17:07:51.016Z,27.30
2017-08-27T17:10:18.501Z,27.20
2017-08-27T17:12:45.995Z,27.10
2017-08-27T17:15:13.486Z,27.10
2017-08-27T17:17:41.001Z,27.00
2017-08-27T17:20:08.486Z,26.60
2017-08-27T17:22:36.770Z,25.80
2017-08-27T17:25:05.017Z,25.60
2017-08-27T17:27:32.516Z,25.50
2017-08-27T17:30:00.765Z,25.10
2017-08-27T17:32:28.279Z,25.10
2017-08-27T17:34:55.769Z,25.00
2017-08-27T17:37:23.269Z,24.90
2017-08-27T17:39:50.756Z,24.60
2017-08-27T17:42:19.158Z,24.60
2017-08-27T17:44:46.660Z,24.40
2017-08-27T17:47:14.165Z,24.30
2017-08-27T17:49:41.645Z,24.10
2017-08-27T17:52:09.120Z,24.00
2017-08-27T17:54:37.382Z,24.00
2017-08-27T17:57:04.874Z,24.00
2017-08-27T17:59:32.371Z,23.90
2017-08-27T18:01:59.863Z,23.90
2017-08-27T18:04:27.354Z,23.80
2017-08-27T18:06:54.834Z,23.70
2017-08-27T18:09:22.331Z,23.60
2017-08-27T18:11:49.818Z,23.60
2017-08-27T18:14:17.311Z,23.60
2017-08-27T18:16:44.806Z,23.60
2017-08-27T18:19:12.326Z,23.50
2017-08-27T18:21:39.814Z,23.50
2017-08-27T18:24:07.307Z,23.50
2017-08-27T18:26:35.567Z,23.30
2017-08-27T18:29:03.062Z,23.30
2017-08-27T18:31:30.533Z,23.30
2017-08-27T18:33:58.050Z,23.20
2017-08-27T18:36:25.549Z,23.20
2017-08-27T18:38:53.036Z,23.20
2017-08-27T18:41:20.527Z,23.20
2017-08-27T18:43:48.774Z,23.20
2017-08-27T18:46:16.284Z,23.20
2017-08-27T18:48:43.764Z,23.10
2017-08-27T18:51:11.257Z,23.00
2017-08-27T18:53:38.733Z,22.90
2017-08-27T18:56:06.993Z,22.70
2017-08-27T18:58:34.491Z,22.70
2017-08-27T19:01:02.015Z,22.70
2017-08-27T19:03:29.496Z,22.70
2017-08-27T19:05:56.991Z,22.70
2017-08-27T19:08:24.513Z,22.70
2017-08-27T19:10:51.996Z,22.70
2017-08-27T19:13:19.478Z,22.70
2017-08-27T19:15:46.970Z,22.70
2017-08-27T19:18:14.453Z,22.70
2017-08-27T19:20:41.978Z,22.70
2017-08-27T19:23:09.465Z,22.70
2017-08-27T19:25:36.963Z,22.70
2017-08-27T19:28:04.467Z,22.70
2017-08-27T19:30:31.944Z,22.60
2017-08-27T19:32:59.454Z,22.60
2017-08-27T19:35:27.103Z,22.60
2017-08-27T19:37:54.617Z,22.50
2017-08-27T19:40:22.103Z,22.50
2017-08-27T19:42:49.598Z,22.50
2017-08-27T19:45:17.074Z,22.40
2017-08-27T19:47:45.355Z,22.30
2017-08-27T19:50:12.860Z,22.30
2017-08-27T19:52:40.352Z,22.20
2017-08-27T19:55:07.837Z,22.10
2017-08-27T19:57:35.327Z,22.10
2017-08-27T20:00:02.831Z,22.00
2017-08-27T20:02:30.339Z,22.00
2017-08-27T20:04:57.837Z,21.90
2017-08-27T20:07:25.355Z,22.00
2017-08-27T20:09:52.841Z,22.00
2017-08-27T20:12:20.920Z,22.00
2017-08-27T20:14:48.410Z,21.90
2017-08-27T20:17:15.918Z,21.80
2017-08-27T20:19:43.391Z,21.80
2017-08-27T20:22:10.871Z,21.80
2017-08-27T20:24:39.137Z,21.80
2017-08-27T20:27:06.615Z,21.80
2017-08-27T20:29:34.103Z,21.70
2017-08-27T20:32:01.584Z,21.70
2017-08-27T20:34:29.078Z,21.70
2017-08-27T20:36:57.402Z,21.70
2017-08-27T20:39:24.920Z,21.70
2017-08-27T20:41:52.398Z,21.60
2017-08-27T20:44:19.893Z,21.60
2017-08-27T20:46:47.371Z,21.60
2017-08-27T20:49:14.950Z,21.60
2017-08-27T20:51:43.230Z,21.20
2017-08-27T20:54:10.727Z,21.20
2017-08-27T20:56:38.224Z,21.20
2017-08-27T20:59:05.704Z,21.20
2017-08-27T21:01:33.182Z,21.00
2017-08-27T21:04:00.684Z,21.00
2017-08-27T21:06:28.177Z,21.00
2017-08-27T21:08:55.667Z,20.90
2017-08-27T21:11:23.164Z,20.80
2017-08-27T21:13:50.679Z,20.80
2017-08-27T21:16:18.165Z,20.90
2017-08-27T21:18:45.650Z,20.90
2017-08-27T21:21:13.155Z,20.90
2017-08-27T21:23:40.642Z,20.90
2017-08-27T21:26:08.132Z,21.00
2017-08-27T21:28:35.618Z,20.90
2017-08-27T21:31:03.113Z,20.90
2017-08-27T21:33:30.594Z,21.00
2017-08-27T21:35:58.096Z,21.00
2017-08-27T21:38:27.026Z,20.90
2017-08-27T21:40:54.514Z,20.90
2017-08-27T21:43:22.000Z,20.90
2017-08-27T21:45:49.490Z,21.00
2017-08-27T21:48:16.971Z,20.90
2017-08-27T21:50:44.476Z,20.80
2017-08-27T21:53:11.960Z,20.80
2017-08-27T21:55:39.449Z,20.80
2017-08-27T21:58:06.943Z,20.80
2017-08-27T22:00:36.019Z,20.90
2017-08-27T22:03:03.498Z,20.80
2017-08-27T22:05:31.030Z,20.80
2017-08-27T22:07:58.527Z,20.80
2017-08-27T22:10:26.025Z,20.70
2017-08-27T22:12:53.521Z,20.70
2017-08-27T22:15:21.007Z,20.60
2017-08-27T22:17:48.497Z,20.60
2017-08-27T22:20:15.991Z,20.60
2017-08-27T22:22:43.496Z,20.60
2017-08-27T22:25:10.980Z,20.60
2017-08-27T22:27:38.486Z,20.50
2017-08-27T22:30:05.980Z,20.50
2017-08-27T22:32:33.470Z,20.40
2017-08-27T22:35:00.989Z,20.20
2017-08-27T22:37:28.497Z,20.10
2017-08-27T22:39:55.987Z,20.10
2017-08-27T22:42:23.502Z,20.10
2017-08-27T22:44:51.003Z,20.20
2017-08-27T22:47:19.262Z,20.10
2017-08-27T22:49:46.761Z,20.10
2017-08-27T22:52:14.285Z,20.10
2017-08-27T22:54:41.763Z,20.00
2017-08-27T22:57:10.018Z,20.20
2017-08-27T22:59:37.525Z,20.20
2017-08-27T23:02:05.015Z,20.30
2017-08-27T23:04:32.509Z,20.20
2017-08-27T23:07:00.004Z,20.20
2017-08-27T23:09:27.502Z,20.20
2017-08-27T23:11:54.999Z,20.20
2017-08-27T23:14:22.504Z,20.20
2017-08-27T23:16:49.996Z,20.10
2017-08-27T23:19:17.493Z,20.10
2017-08-27T23:21:44.990Z,20.10
2017-08-27T23:24:12.477Z,20.00
2017-08-27T23:26:39.958Z,20.00
2017-08-27T23:29:07.465Z,20.00
2017-08-27T23:31:34.946Z,20.00
2017-08-27T23:34:02.474Z,20.00
2017-08-27T23:36:29.942Z,20.00
2017-08-27T23:38:57.430Z,19.90
2017-08-27T23:41:24.931Z,19.90
2017-08-27T23:43:52.421Z,19.90
2017-08-27T23:46:19.914Z,19.90
2017-08-27T23:48:47.509Z,19.80
2017-08-27T23:51:14.997Z,19.80
2017-08-27T23:53:42.489Z,19.80
2017-08-27T23:56:09.991Z,19.90
2017-08-27T23:58:37.480Z,19.70
